Deering Airport Deering US
ICAO: PADE
IATA:
Category: Medium
Scheduled Services:

Elevation: 21 ft
TransAlt. 18000 ft.

Airport Communications:
ANCHORAGE CNTR:119.2
ASOS:135.5
CTAF:122.9

PADE Zoom In..

Runways:

(A) RW 02 length 3320 ft width 75 ft
---- / hdg 21

(B) RW 11 length 2660 ft width 75 ft
---- / hdg 110

(C) RW 20 length 3320 ft width 75 ft
---- / hdg 201

(D) RW 29 length 2660 ft width 75 ft
---- / hdg 290

Location; PADE
Day. 19 / Time. 20.53 Zulu
* Altimeter: 30.17
* Temperature: 11° c. 51.8°f.
* Wind from: 250° Speed 06 kn.
Dewpoint: 08° c.
Visibility: 10 Statute Miles.
Clouds: Overcast 3300 ft.

PADE 192053Z AUTO 25006KT 10SM OVC033 11/08 A3017 RMK AO2 SLP217 60000 T01060083 53014 TSNO $


Wind From 250°
Speed 06 kn.

 
 
jpsmedia.com for Web Design worldairports.se 2018   terms of use